New Raymer, Colorado
Current Conditions -  °F | °C
As of 10:15 PM on Friday 28 Nov 2014 (Local Time) from KFMM Reporting Station
Clear Clear  
Wind Chill: 29°   Ceiling: Unl
Heat Index: 35°   Visibility: 10mi
Dew Point: 23°   Wind: 7mph
Humidity: 63%   Direction: 190°S
Pressure: 29.76"   Gusts: NA
Location:  40.61°N, 103.84°W
Report Text: KFMM 290515Z AUTO 19006KT 10SM CLR 02/M05 A2976 RMK AO2 T00151048
Loading
Personal Weather Stations






























Interactive Weather Map New forecast layout! Learn more

10-Day Weather Forecast

Advertisements
Track Severe Weather on mobile